Detroit, Michigan
Current Conditions -  °F | °C
As of 7:00 PM on Friday 21 Nov 2014 (Local Time) from CYQG Reporting Station
Clear Clear  
Wind Chill: 10°   Ceiling: Unl
Heat Index: 21°   Visibility: 15mi
Dew Point: 14°   Wind: 10mph
Humidity: 74%   Direction: 200°SSW
Pressure: 30.43"   Gusts: NA
Location:  42.33°N, 83.05°W
Report Text: CYQG 220000Z 20009KT 15SM SKC M06/M10 A3043 RMK SLP317
Loading
Personal Weather Stations






























Interactive Weather Map New forecast layout! Learn more

10-Day Weather Forecast

Advertisements
Track Severe Weather on mobile